Time;durP1;ratioP1;P1;durP2;ratioP2;P2;SDS_P1;SDS_P2;PMS_P1;PMS_P2;Temp;Humidity;BMP_temperature;BMP_pressure;BME280_temperature;BME280_humidity;BME280_pressure;Samples;Min_cycle;Max_cycle;Signal;HPM_P1;HPM_P2
2022/04/22 00:00:27;;;;;;;0.00;0.00;;;;;;;14.60;48.78;100847.41;7356368;19;20013;-63
2022/04/22 00:02:54;;;;;;;0.00;0.00;;;;;;;14.55;49.69;100854.63;7356097;19;20022;-63
2022/04/22 00:05:19;;;;;;;0.00;0.00;;;;;;;14.21;50.38;100813.75;7357486;19;20010;-63
2022/04/22 00:07:45;;;;;;;0.00;0.00;;;;;;;14.35;50.42;100859.72;7350281;19;20007;-62
2022/04/22 00:10:11;;;;;;;0.00;0.00;;;;;;;14.26;50.43;100867.00;7354015;19;20018;-63
2022/04/22 00:12:37;;;;;;;0.00;0.00;;;;;;;14.20;50.86;100874.22;7347710;19;20011;-63
2022/04/22 00:15:03;;;;;;;0.00;0.00;;;;;;;14.01;50.43;100860.88;7347853;19;20014;-63
2022/04/22 00:17:29;;;;;;;0.00;0.00;;;;;;;14.03;51.13;100887.94;7357600;19;20082;-63
2022/04/22 00:19:54;;;;;;;0.00;0.00;;;;;;;13.96;51.23;100878.56;7352812;19;20382;-63
2022/04/22 00:22:20;;;;;;;0.00;0.00;;;;;;;13.89;50.96;100872.66;7359549;19;20014;-63
2022/04/22 00:24:45;;;;;;;0.00;0.00;;;;;;;13.86;50.94;100869.28;7355708;19;20017;-63
2022/04/22 00:27:11;;;;;;;0.00;0.00;;;;;;;13.80;51.56;100869.47;7354460;19;20018;-64
2022/04/22 00:29:36;;;;;;;0.00;0.00;;;;;;;13.75;51.36;100867.84;7356470;19;20362;-63
2022/04/22 00:32:01;;;;;;;0.00;0.00;;;;;;;13.69;51.79;100865.44;7352999;19;20002;-63
2022/04/22 00:34:27;;;;;;;0.00;0.00;;;;;;;13.67;51.72;100867.25;7346307;19;20351;-64
2022/04/22 00:36:54;;;;;;;0.00;0.00;;;;;;;13.62;52.30;100865.69;7356766;19;20621;-63
2022/04/22 00:39:19;;;;;;;0.00;0.00;;;;;;;13.61;52.38;100870.06;7345451;19;20003;-63
2022/04/22 00:41:45;;;;;;;0.00;0.00;;;;;;;13.58;51.79;100864.91;7359020;19;20034;-63
2022/04/22 00:44:11;;;;;;;0.00;0.00;;;;;;;13.50;51.96;100845.97;7356128;19;20003;-63
2022/04/22 00:46:36;;;;;;;0.00;0.00;;;;;;;13.50;52.32;100859.06;7363019;19;20003;-63
2022/04/22 00:49:02;;;;;;;0.00;0.00;;;;;;;13.46;52.14;100850.44;7355241;19;20338;-63
2022/04/22 00:51:27;;;;;;;0.00;0.00;;;;;;;13.40;52.47;100855.03;7354861;19;20006;-62
2022/04/22 00:53:52;;;;;;;0.00;0.00;;;;;;;13.38;52.08;100865.59;7353475;19;20002;-63
2022/04/22 00:56:18;;;;;;;0.00;0.00;;;;;;;13.33;52.21;100859.63;7363468;19;20086;-63
2022/04/22 00:58:46;;;;;;;0.00;0.00;;;;;;;13.31;52.86;100861.41;7353532;19;20026;-63
2022/04/22 01:01:13;;;;;;;0.00;0.00;;;;;;;13.24;52.71;100855.50;7362987;19;20455;-63
2022/04/22 01:03:40;;;;;;;0.00;0.00;;;;;;;13.14;52.83;100843.56;7356675;19;20604;-63
2022/04/22 01:11:37;;;;;;;0.00;0.00;;;;;;;13.06;52.79;100861.28;7362762;19;20485;-63
2022/04/22 01:14:07;;;;;;;0.00;0.00;;;;;;;12.92;51.36;100842.47;7362309;19;20006;-63
2022/04/22 01:16:33;;;;;;;0.00;0.00;;;;;;;12.97;53.09;100859.78;7355282;19;20043;-62
2022/04/22 01:18:58;;;;;;;0.00;0.00;;;;;;;12.92;53.29;100845.09;7359011;19;20028;-63
2022/04/22 01:21:24;;;;;;;0.00;0.00;;;;;;;12.89;53.08;100832.09;7361804;19;20018;-62
2022/04/22 01:23:50;;;;;;;0.00;0.00;;;;;;;12.85;53.48;100852.31;7359852;19;20029;-63
2022/04/22 01:26:15;;;;;;;0.00;0.00;;;;;;;12.82;53.56;100843.66;7360686;19;20011;-61
2022/04/22 01:28:43;;;;;;;0.00;0.00;;;;;;;12.76;54.15;100854.34;7363644;19;20030;-63
2022/04/22 01:31:08;;;;;;;;;;;;;;;12.75;49.15;100850.00;7361485;19;20014;-63
2022/04/22 01:33:34;;;;;;;0.00;0.00;;;;;;;12.70;53.75;100852.75;7358037;19;20609;-63
2022/04/22 01:36:00;;;;;;;0.00;0.00;;;;;;;12.67;53.48;100839.72;7351057;19;20018;-63
2022/04/22 01:38:26;;;;;;;0.00;0.00;;;;;;;12.52;53.32;100841.06;7362746;19;20409;-62
2022/04/22 01:40:51;;;;;;;0.00;0.00;;;;;;;12.54;53.95;100854.97;7358643;19;20115;-63
2022/04/22 01:43:17;;;;;;;0.00;0.00;;;;;;;12.55;54.16;100869.75;7357622;19;20021;-63
2022/04/22 01:45:43;;;;;;;0.00;0.00;;;;;;;12.40;54.11;100854.47;7362411;19;20092;-63
2022/04/22 01:48:08;;;;;;;0.00;0.00;;;;;;;12.50;54.60;100876.88;7359612;19;20069;-63
2022/04/22 01:50:34;;;;;;;0.00;0.00;;;;;;;12.46;54.78;100880.50;7359102;19;20007;-62
2022/04/22 01:52:59;;;;;;;0.00;0.00;;;;;;;12.44;55.08;100877.06;7361470;19;20754;-62
2022/04/22 01:55:27;;;;;;;0.00;0.00;;;;;;;12.42;54.68;100884.13;7360289;19;20022;-63
2022/04/22 01:57:53;;;;;;;0.00;0.00;;;;;;;12.40;54.61;100867.56;7352152;19;20014;-62
2022/04/22 02:00:19;;;;;;;0.00;0.00;;;;;;;12.39;55.02;100868.47;7359598;19;20014;-62
2022/04/22 02:02:45;;;;;;;0.00;0.00;;;;;;;12.30;54.74;100855.63;7348177;19;20011;-63
2022/04/22 02:05:10;;;;;;;0.00;0.00;;;;;;;12.35;54.98;100869.47;7352581;19;20040;-63
2022/04/22 02:07:35;;;;;;;0.00;0.00;;;;;;;12.23;55.31;100852.34;7360977;19;20006;-63
2022/04/22 02:10:01;;;;;;;0.00;0.00;;;;;;;12.32;55.30;100861.69;7359110;19;20014;-63
2022/04/22 02:12:26;;;;;;;0.00;0.00;;;;;;;12.29;55.66;100860.00;7357754;19;22761;-63
2022/04/22 02:14:51;;;;;;;0.00;0.00;;;;;;;12.28;55.47;100860.06;7351723;19;20113;-62
2022/04/22 02:17:18;;;;;;;0.00;0.00;;;;;;;12.27;55.23;100853.13;7358738;19;20007;-63
2022/04/22 02:19:44;;;;;;;0.00;0.00;;;;;;;12.13;55.25;100828.16;7357301;19;20411;-63
2022/04/22 02:22:09;;;;;;;0.00;0.00;;;;;;;12.24;55.37;100850.56;7353888;19;20026;-63
2022/04/22 02:24:35;;;;;;;0.00;0.00;;;;;;;12.20;55.05;100837.53;7359515;19;20002;-63
2022/04/22 02:29:44;;;;;;;0.00;0.00;;;;;;;12.15;55.57;100839.44;7358631;19;20055;-63
2022/04/22 02:32:10;;;;;;;0.00;0.00;;;;;;;12.13;55.19;100838.63;7342427;19;20440;-63
2022/04/22 02:34:35;;;;;;;0.00;0.00;;;;;;;12.10;54.34;100841.31;7353077;19;20027;-63
2022/04/22 02:37:01;;;;;;;0.00;0.00;;;;;;;12.08;55.38;100845.75;7351646;19;20011;-64
2022/04/22 02:39:26;;;;;;;0.00;0.00;;;;;;;12.06;55.76;100854.53;7360236;19;20010;-63
2022/04/22 02:47:20;;;;;;;0.00;0.00;;;;;;;12.01;54.97;100851.16;7362311;19;20557;-63
2022/04/22 02:49:45;;;;;;;0.00;0.00;;;;;;;11.99;55.31;100843.38;7355749;19;20006;-63
2022/04/22 02:52:12;;;;;;;0.00;0.00;;;;;;;11.97;55.49;100855.63;7357659;19;20018;-63
2022/04/22 02:54:38;;;;;;;0.00;0.00;;;;;;;11.94;55.27;100855.72;7357142;19;20018;-61
2022/04/22 02:57:03;;;;;;;0.00;0.00;;;;;;;11.89;55.49;100857.59;7361694;19;19999;-63
2022/04/22 02:59:29;;;;;;;0.00;0.00;;;;;;;11.90;55.44;100860.16;7354711;19;20018;-62
2022/04/22 03:01:55;;;;;;;0.00;0.00;;;;;;;11.88;55.40;100863.72;7357075;19;20006;-63
2022/04/22 03:04:22;;;;;;;0.00;0.00;;;;;;;11.87;55.39;100851.53;7352950;19;20046;-63
2022/04/22 03:06:47;;;;;;;0.00;0.00;;;;;;;11.85;55.27;100850.72;7347604;19;20010;-63
2022/04/22 03:09:12;;;;;;;0.00;0.00;;;;;;;11.76;55.64;100836.09;7357001;19;20010;-62
2022/04/22 03:11:38;;;;;;;0.00;0.00;;;;;;;11.81;55.46;100838.56;7359616;19;20038;-63
2022/04/22 03:14:05;;;;;;;0.00;0.00;;;;;;;11.76;55.12;100841.31;7351835;19;20033;-63
2022/04/22 03:16:31;;;;;;;0.00;0.00;;;;;;;11.77;55.47;100844.78;7353087;19;20010;-63
2022/04/22 03:18:57;;;;;;;0.00;0.00;;;;;;;11.70;55.67;100831.84;7352743;19;20030;-62
2022/04/22 03:21:23;;;;;;;0.00;0.00;;;;;;;11.39;55.93;100779.44;7360803;19;20002;-63
2022/04/22 03:23:49;;;;;;;0.00;0.00;;;;;;;11.69;55.41;100848.44;7360793;19;20069;-61
2022/04/22 03:26:15;;;;;;;0.00;0.00;;;;;;;11.66;55.30;100840.69;7347505;19;20006;-62
2022/04/22 03:28:41;;;;;;;0.00;0.00;;;;;;;11.66;55.44;100840.69;7364265;19;20002;-63
2022/04/22 03:31:06;;;;;;;0.00;0.00;;;;;;;11.64;55.59;100828.53;7363575;19;20034;-63
2022/04/22 03:33:31;;;;;;;0.00;0.00;;;;;;;11.61;55.47;100826.88;7353276;19;20944;-62
2022/04/22 03:35:57;;;;;;;0.00;0.00;;;;;;;11.59;55.41;100836.50;7361765;19;20010;-63
2022/04/22 03:38:23;;;;;;;0.00;0.00;;;;;;;11.58;55.80;100853.09;7350085;19;20650;-63
2022/04/22 03:40:50;;;;;;;0.00;0.00;;;;;;;11.56;56.20;100857.50;7363690;19;20007;-63
2022/04/22 03:43:16;;;;;;;0.00;0.00;;;;;;;11.54;56.01;100861.91;7358427;19;20021;-63
2022/04/22 03:45:42;;;;;;;0.00;0.00;;;;;;;11.53;56.27;100860.19;7360762;19;20010;-63
2022/04/22 03:48:08;;;;;;;0.00;0.00;;;;;;;11.52;56.54;100850.63;7359445;19;20038;-63
2022/04/22 03:50:36;;;;;;;0.00;0.00;;;;;;;11.50;56.29;100854.16;7362903;19;20042;-63
2022/04/22 03:53:04;;;;;;;0.00;0.00;;;;;;;11.48;56.55;100861.19;7359192;19;20725;-63
2022/04/22 03:55:30;;;;;;;0.00;0.00;;;;;;;11.46;56.96;100860.38;7358178;19;20082;-63
2022/04/22 03:58:10;;;;;;;0.00;0.00;;;;;;;11.38;56.77;100842.25;7362191;19;20011;-62
2022/04/22 04:01:02;;;;;;;0.00;0.00;;;;;;;11.42;54.71;100838.66;7352952;19;20014;-63
2022/04/22 04:03:27;;;;;;;0.00;0.00;;;;;;;11.39;57.00;100828.28;7259826;19;2004534;-63
2022/04/22 04:05:52;;;;;;;0.00;0.00;;;;;;;11.36;56.53;100834.44;7358275;19;20019;-63
2022/04/22 04:08:20;;;;;;;0.00;0.00;;;;;;;11.23;56.80;100813.84;7357803;19;20002;-62
2022/04/22 04:16:14;;;;;;;0.00;0.00;;;;;;;11.13;57.16;100818.44;7355984;19;20006;-63
2022/04/22 04:18:40;;;;;;;0.00;0.00;;;;;;;11.12;57.10;100814.97;7358856;19;20041;-62
2022/04/22 04:23:52;;;;;;;0.00;0.00;;;;;;;11.18;57.51;100843.56;7357789;19;20023;-63
2022/04/22 04:26:19;;;;;;;0.00;0.00;;;;;;;11.15;57.23;100843.66;7357139;19;20014;-62
2022/04/22 04:28:47;;;;;;;0.00;0.00;;;;;;;11.15;57.64;100848.00;7357566;19;20098;-63
2022/04/22 04:31:12;;;;;;;;;;;;;;;11.14;54.21;100844.53;7361589;19;20018;-63
2022/04/22 04:33:38;;;;;;;0.00;0.00;;;;;;;11.10;57.30;100842.91;7355740;19;19919;-63
2022/04/22 04:36:05;;;;;;;0.00;0.00;;;;;;;10.98;57.67;100830.09;7361545;19;20007;-62
2022/04/22 04:38:31;;;;;;;0.00;0.00;;;;;;;11.00;57.52;100838.78;7361884;19;20444;-63
2022/04/22 04:40:57;;;;;;;0.00;0.00;;;;;;;11.03;58.04;100848.28;7350641;19;20027;-63
2022/04/22 04:43:23;;;;;;;0.00;0.00;;;;;;;10.94;58.56;100823.22;7358641;19;20019;-63
2022/04/22 04:45:50;;;;;;;0.00;0.00;;;;;;;10.97;58.38;100838.81;7361010;19;20023;-63
2022/04/22 04:48:17;;;;;;;0.00;0.00;;;;;;;10.96;59.28;100842.34;7359357;19;20011;-63
2022/04/22 04:50:46;;;;;;;0.00;0.00;;;;;;;10.93;59.58;100837.16;7359529;19;20009;-63
2022/04/22 04:53:14;;;;;;;0.00;0.00;;;;;;;10.92;59.01;100845.91;7360504;19;20358;-63
2022/04/22 04:55:40;;;;;;;0.00;0.00;;;;;;;10.89;59.49;100845.97;7352767;19;20031;-62
2022/04/22 04:58:06;;;;;;;0.00;0.00;;;;;;;10.88;59.92;100850.34;7361490;19;20038;-62
2022/04/22 05:00:32;;;;;;;0.00;0.00;;;;;;;10.84;60.11;100845.19;7353503;19;20557;-62
2022/04/22 05:02:59;;;;;;;0.00;0.00;;;;;;;10.86;60.32;100846.03;7362387;19;20011;-63
2022/04/22 05:05:25;;;;;;;0.00;0.00;;;;;;;10.77;60.13;100831.41;7341712;19;20032;-62
2022/04/22 05:07:53;;;;;;;0.00;0.00;;;;;;;10.86;60.16;100840.81;7357747;19;20031;-63
2022/04/22 05:10:19;;;;;;;0.00;0.00;;;;;;;10.79;60.15;100834.84;7352126;19;20019;-63
2022/04/22 05:12:46;;;;;;;0.00;0.00;;;;;;;10.82;60.50;100842.63;7348230;19;20505;-62
2022/04/22 05:15:15;;;;;;;0.00;0.00;;;;;;;10.84;60.20;100848.66;7360658;19;20016;-62
2022/04/22 05:17:45;;;;;;;0.00;0.00;;;;;;;10.83;59.86;100853.94;7357900;19;20031;-62
2022/04/22 05:20:12;;;;;;;0.00;0.00;;;;;;;10.80;59.93;100840.97;7357019;19;20629;-63
2022/04/22 05:22:39;;;;;;;0.00;0.00;;;;;;;10.78;60.36;100842.72;7360941;19;20021;-63
2022/04/22 05:25:09;;;;;;;0.00;0.00;;;;;;;10.74;60.65;100843.69;7349396;19;20090;-62
2022/04/22 05:27:34;;;;;;;0.00;0.00;;;;;;;10.68;60.27;100836.84;7353068;19;20015;-62
2022/04/22 05:32:47;;;;;;;0.00;0.00;;;;;;;10.72;60.73;100853.31;7361962;19;20107;-63
2022/04/22 05:35:15;;;;;;;0.00;0.00;;;;;;;10.74;61.13;100851.50;7362040;19;20124;-62
2022/04/22 05:37:44;;;;;;;0.00;0.00;;;;;;;10.75;61.00;100853.25;7365894;19;20010;-63
2022/04/22 05:40:11;;;;;;;0.00;0.00;;;;;;;10.74;61.26;100847.16;7364782;19;20115;-63
2022/04/22 05:42:38;;;;;;;0.00;0.00;;;;;;;10.64;61.20;100838.66;7366180;19;20014;-63
2022/04/22 05:45:06;;;;;;;0.00;0.00;;;;;;;10.75;61.09;100858.47;7356116;19;20014;-64
2022/04/22 05:47:32;;;;;;;0.00;0.00;;;;;;;10.75;61.01;100863.72;7360786;19;20114;-62
2022/04/22 05:49:57;;;;;;;0.00;0.00;;;;;;;10.73;61.39;100863.72;7360463;19;20479;-63
2022/04/22 05:52:22;;;;;;;0.00;0.00;;;;;;;10.66;60.68;100846.47;7363859;19;20017;-63
2022/04/22 05:54:48;;;;;;;0.00;0.00;;;;;;;10.76;60.90;100860.19;7366795;19;20795;-63
2022/04/22 05:57:13;;;;;;;0.00;0.00;;;;;;;10.76;61.42;100860.19;7361897;19;20010;-62
2022/04/22 05:59:39;;;;;;;0.00;0.00;;;;;;;10.77;61.09;100860.16;7366101;19;20024;-63
2022/04/22 06:02:05;;;;;;;0.00;0.00;;;;;;;10.79;61.21;100865.34;7355130;19;20018;-63
2022/04/22 06:04:30;;;;;;;0.00;0.00;;;;;;;10.74;61.67;100849.75;7364740;19;20018;-63
2022/04/22 06:06:56;;;;;;;0.00;0.00;;;;;;;10.81;61.58;100863.56;7354735;19;20110;-63
2022/04/22 06:12:06;;;;;;;0.00;0.00;;;;;;;10.89;61.92;100866.84;7364360;19;20086;-63
2022/04/22 06:14:31;;;;;;;0.00;0.00;;;;;;;10.94;62.11;100865.00;7365787;19;20014;-63
2022/04/22 06:16:56;;;;;;;0.00;0.00;;;;;;;11.01;62.13;100857.91;7363996;19;20023;-62
2022/04/22 06:19:22;;;;;;;0.00;0.00;;;;;;;11.07;61.96;100866.47;7365447;19;20006;-63
2022/04/22 06:21:47;;;;;;;0.00;0.00;;;;;;;11.15;61.88;100859.34;7356618;19;20022;-63
2022/04/22 06:24:13;;;;;;;0.00;0.00;;;;;;;11.24;61.44;100867.84;7362846;19;20007;-63
2022/04/22 06:26:38;;;;;;;0.00;0.00;;;;;;;11.30;61.64;100867.69;7359374;19;20019;-62
2022/04/22 06:29:03;;;;;;;0.00;0.00;;;;;;;11.37;60.97;100869.28;7358615;19;20034;-63
2022/04/22 06:31:29;;;;;;;0.00;0.00;;;;;;;11.42;61.39;100867.44;7362343;19;20449;-63
2022/04/22 06:33:56;;;;;;;0.00;0.00;;;;;;;11.47;61.50;100865.56;7354878;19;20784;-62
2022/04/22 06:36:27;;;;;;;0.00;0.00;;;;;;;11.54;61.10;100866.28;7359744;19;20003;-63
2022/04/22 06:38:57;;;;;;;0.00;0.00;;;;;;;11.57;60.95;100871.44;7359200;19;20344;-63
2022/04/22 06:47:12;;;;;;;0.00;0.00;;;;;;;11.71;60.83;100879.81;7256330;19;2004517;-63
2022/04/22 06:49:37;;;;;;;0.00;0.00;;;;;;;11.76;60.19;100880.56;7354212;19;20010;-63
2022/04/22 06:52:05;;;;;;;0.00;0.00;;;;;;;11.81;60.36;100875.19;7340800;19;20365;-63
2022/04/22 06:54:31;;;;;;;0.00;0.00;;;;;;;11.73;60.18;100856.22;7360877;19;20716;-63
2022/04/22 06:56:57;;;;;;;0.00;0.00;;;;;;;11.76;59.80;100864.88;7357323;19;20002;-63
2022/04/22 06:59:24;;;;;;;0.00;0.00;;;;;;;11.81;59.89;100862.09;7364471;19;20547;-62
2022/04/22 07:01:49;;;;;;;0.00;0.00;;;;;;;11.92;59.54;100888.91;7362062;19;20017;-63
2022/04/22 07:04:15;;;;;;;0.00;0.00;;;;;;;11.94;59.70;100881.88;7355419;19;20014;-63
2022/04/22 07:06:45;;;;;;;0.00;0.00;;;;;;;11.84;59.55;100862.06;7357200;19;20006;-63
2022/04/22 07:09:11;;;;;;;0.00;0.00;;;;;;;11.89;59.40;100865.44;7360127;19;20025;-63
2022/04/22 07:11:40;;;;;;;0.00;0.00;;;;;;;12.03;59.36;100875.56;7356224;19;20010;-62
2022/04/22 07:14:07;;;;;;;0.00;0.00;;;;;;;12.05;59.01;100874.59;7359686;19;20031;-63
2022/04/22 07:16:33;;;;;;;0.00;0.00;;;;;;;12.11;59.39;100860.50;7360025;19;20018;-62
2022/04/22 07:18:59;;;;;;;0.00;0.00;;;;;;;12.17;59.11;100866.44;7363313;19;20022;-63
2022/04/22 07:21:26;;;;;;;0.00;0.00;;;;;;;12.23;58.71;100857.56;7347782;19;20739;-63
2022/04/22 07:23:55;;;;;;;0.00;0.00;;;;;;;12.30;58.97;100860.88;7356673;19;20014;-63
2022/04/22 07:26:21;;;;;;;0.10;0.10;;;;;;;12.25;59.10;100841.81;7355571;19;20637;-63
2022/04/22 07:28:48;;;;;;;0.00;0.00;;;;;;;12.43;58.65;100860.50;7356295;19;20443;-63
2022/04/22 07:31:20;;;;;;;0.00;0.00;;;;;;;12.51;58.46;100862.03;7354305;19;20011;-63
2022/04/22 07:33:46;;;;;;;0.00;0.00;;;;;;;12.56;58.44;100857.53;7356737;19;20475;-63
2022/04/22 07:36:12;;;;;;;0.00;0.00;;;;;;;12.62;58.82;100849.47;7354207;19;21593;-63
2022/04/22 07:38:37;;;;;;;0.00;0.00;;;;;;;12.68;58.47;100855.44;7355132;19;19999;-61
2022/04/22 07:41:07;;;;;;;0.00;0.00;;;;;;;12.78;57.88;100855.16;7356887;19;20461;-63
2022/04/22 07:49:03;;;;;;;0.00;0.00;;;;;;;13.01;57.76;100857.09;7361647;19;20013;-63
2022/04/22 07:51:29;;;;;;;0.00;0.00;;;;;;;13.09;57.43;100861.19;7354570;19;20026;-62
2022/04/22 07:53:55;;;;;;;0.00;0.00;;;;;;;13.16;57.71;100860.09;7359996;19;20002;-63
2022/04/22 07:56:21;;;;;;;0.00;0.00;;;;;;;13.26;57.69;100865.09;7361293;19;20009;-63
2022/04/22 07:58:46;;;;;;;0.00;0.00;;;;;;;13.35;57.07;100863.03;7360118;19;20006;-63
2022/04/22 08:01:12;;;;;;;0.00;0.00;;;;;;;13.45;57.01;100859.22;7356930;19;20340;-63
2022/04/22 08:03:37;;;;;;;0.00;0.00;;;;;;;13.54;56.38;100867.72;7358001;19;20014;-61
2022/04/22 08:06:04;;;;;;;0.00;0.00;;;;;;;13.60;56.37;100863.13;7354492;19;20492;-63
2022/04/22 08:08:30;;;;;;;0.00;0.00;;;;;;;13.66;56.39;100851.56;7355574;19;19998;-63
2022/04/22 08:10:56;;;;;;;0.00;0.00;;;;;;;13.72;56.35;100854.81;7355306;19;20022;-62
2022/04/22 08:13:24;;;;;;;0.00;0.00;;;;;;;13.80;56.23;100857.22;7355671;19;20002;-63
2022/04/22 08:15:49;;;;;;;0.00;0.00;;;;;;;13.88;56.18;100851.69;7359406;19;20026;-62
2022/04/22 08:18:14;;;;;;;0.00;0.00;;;;;;;13.95;55.94;100858.47;7352725;19;20040;-62
2022/04/22 08:20:40;;;;;;;0.00;0.00;;;;;;;13.95;55.42;100837.47;7352478;19;20010;-61
2022/04/22 08:23:06;;;;;;;0.00;0.00;;;;;;;14.11;55.69;100848.28;7357334;19;20010;-64
2022/04/22 08:25:31;;;;;;;0.00;0.00;;;;;;;14.20;55.08;100845.34;7359250;19;20035;-63
2022/04/22 08:27:56;;;;;;;0.00;0.00;;;;;;;14.26;55.16;100848.59;7346370;19;20019;-61
2022/04/22 08:30:22;;;;;;;0.10;0.10;;;;;;;14.34;54.47;100844.81;7360764;19;20027;-63
2022/04/22 08:32:47;;;;;;;0.10;0.10;;;;;;;14.39;54.61;100845.53;7360070;19;20038;-63
2022/04/22 08:35:13;;;;;;;0.00;0.00;;;;;;;14.42;53.50;100827.03;7363717;19;20717;-63
2022/04/22 08:37:42;;;;;;;0.00;0.00;;;;;;;14.51;53.45;100847.75;7339041;19;20009;-62
2022/04/22 08:40:08;;;;;;;0.00;0.00;;;;;;;14.57;52.95;100852.78;7358062;19;20013;-62
2022/04/22 08:42:45;;;;;;;0.00;0.00;;;;;;;14.67;52.91;100833.13;7358123;19;20010;-62
2022/04/22 08:45:11;;;;;;;0.00;0.00;;;;;;;14.68;52.11;100837.47;7353886;19;20040;-63
2022/04/22 08:50:22;;;;;;;0.00;0.00;;;;;;;14.85;51.73;100831.59;7359405;19;20038;-62
2022/04/22 08:53:03;;;;;;;0.00;0.00;;;;;;;14.96;52.02;100824.13;7351120;19;20006;-63
2022/04/22 08:55:30;;;;;;;0.00;0.00;;;;;;;15.20;50.88;100838.06;7357890;19;20013;-63
2022/04/22 08:57:55;;;;;;;0.00;0.00;;;;;;;15.36;50.15;100842.72;7359467;19;20207;-62
2022/04/22 09:00:26;;;;;;;0.00;0.00;;;;;;;15.57;49.90;100841.88;7359848;19;20084;-63
2022/04/22 09:02:56;;;;;;;0.00;0.00;;;;;;;15.79;49.92;100847.13;7365198;19;20022;-61
2022/04/22 09:05:21;;;;;;;0.00;0.00;;;;;;;15.92;49.96;100835.16;7368376;19;20010;-63
2022/04/22 09:07:47;;;;;;;0.00;0.00;;;;;;;16.15;49.16;100834.16;7359739;19;20017;-63
2022/04/22 09:10:13;;;;;;;0.00;0.00;;;;;;;16.35;48.59;100844.69;7364381;19;20134;-63
2022/04/22 09:12:50;;;;;;;0.00;0.00;;;;;;;16.58;48.86;100825.22;7361579;19;20117;-64
2022/04/22 09:15:15;;;;;;;0.03;0.03;;;;;;;16.71;48.52;100827.25;7367611;19;20006;-62
2022/04/22 09:17:41;;;;;;;0.00;0.00;;;;;;;16.80;48.55;100826.88;7361127;19;20030;-63
2022/04/22 09:20:13;;;;;;;0.10;0.10;;;;;;;16.94;48.66;100828.88;7360645;19;20017;-63
2022/04/22 09:22:38;;;;;;;0.05;0.05;;;;;;;16.90;47.76;100822.03;7359778;19;20022;-62
2022/04/22 09:25:05;;;;;;;0.00;0.00;;;;;;;16.81;47.38;100808.34;7360711;19;20011;-63
2022/04/22 09:27:36;;;;;;;0.00;0.00;;;;;;;16.88;47.59;100829.16;7363888;19;20003;-63
2022/04/22 09:30:04;;;;;;;0.00;0.00;;;;;;;16.76;48.22;100828.78;7362230;19;20397;-63
2022/04/22 09:32:31;;;;;;;;;;;;;;;16.73;48.31;100821.03;7360634;19;20466;-63
2022/04/22 09:35:05;;;;;;;0.00;0.00;;;;;;;16.59;48.92;100826.06;7354307;19;19919;-62
2022/04/22 09:42:59;;;;;;;0.00;0.00;;;;;;;16.34;49.35;100821.88;7365535;19;20021;-63
2022/04/22 09:45:39;;;;;;;0.00;0.00;;;;;;;16.42;49.32;100825.94;7363379;19;20625;-63
2022/04/22 09:48:17;;;;;;;0.00;0.00;;;;;;;16.41;49.63;100824.25;7360966;19;20006;-62
2022/04/22 09:50:52;;;;;;;0.00;0.00;;;;;;;16.38;50.52;100830.53;7353564;19;20010;-63
2022/04/22 09:53:32;;;;;;;0.00;0.00;;;;;;;16.32;50.94;100828.13;7357671;19;20013;-64
2022/04/22 09:56:04;;;;;;;0.00;0.00;;;;;;;16.29;50.78;100826.50;7360571;19;20007;-63
2022/04/22 09:58:29;;;;;;;0.00;0.00;;;;;;;16.28;50.84;100826.59;7359659;19;20002;-63
2022/04/22 10:01:03;;;;;;;0.00;0.00;;;;;;;16.28;50.30;100830.06;7360569;19;20010;-63
2022/04/22 10:03:34;;;;;;;0.00;0.00;;;;;;;16.23;50.54;100820.66;7355231;19;20445;-63
2022/04/22 10:06:01;;;;;;;0.00;0.00;;;;;;;16.17;50.98;100816.53;7358929;19;20010;-63
2022/04/22 10:08:30;;;;;;;0.00;0.00;;;;;;;16.12;50.96;100818.50;7353714;19;20023;-62
2022/04/22 10:11:00;;;;;;;0.00;0.00;;;;;;;16.10;50.99;100820.34;7359512;19;20023;-62
2022/04/22 10:13:34;;;;;;;0.00;0.00;;;;;;;16.03;50.26;100819.75;7364929;19;20466;-63
2022/04/22 10:16:01;;;;;;;0.00;0.00;;;;;;;15.93;50.94;100817.59;7357789;19;20695;-63
2022/04/22 10:18:27;;;;;;;0.00;0.00;;;;;;;15.84;50.94;100821.47;7360888;19;20014;-63
2022/04/22 10:20:54;;;;;;;0.00;0.00;;;;;;;15.77;51.23;100818.25;7360282;19;20027;-63
2022/04/22 10:23:20;;;;;;;0.00;0.00;;;;;;;15.67;51.63;100816.91;7365693;19;20022;-63
2022/04/22 10:25:45;;;;;;;0.10;0.10;;;;;;;15.61;51.77;100822.38;7363798;19;20010;-63
2022/04/22 10:28:12;;;;;;;0.00;0.00;;;;;;;15.53;51.74;100830.59;7353660;19;20087;-61
2022/04/22 10:30:40;;;;;;;0.00;0.00;;;;;;;15.49;52.22;100833.44;7357343;19;20002;-63
2022/04/22 10:33:07;;;;;;;0.00;0.00;;;;;;;15.40;52.28;100826.75;7363396;19;20007;-63
2022/04/22 10:35:41;;;;;;;0.00;0.00;;;;;;;15.29;52.14;100823.69;7360427;19;20011;-62
2022/04/22 10:38:25;;;;;;;0.00;0.00;;;;;;;15.27;52.68;100829.03;7359595;19;20006;-63
2022/04/22 10:40:50;;;;;;;0.00;0.00;;;;;;;15.15;53.24;100823.41;7361320;19;20006;-63
2022/04/22 10:43:16;;;;;;;0.00;0.00;;;;;;;15.16;53.49;100831.25;7363135;19;20021;-61
2022/04/22 10:48:25;;;;;;;0.00;0.00;;;;;;;15.15;53.14;100832.13;7361582;19;20009;-63
2022/04/22 10:50:59;;;;;;;0.08;0.08;;;;;;;15.22;52.56;100824.88;7351304;19;20018;-61
2022/04/22 10:53:29;;;;;;;0.00;0.00;;;;;;;15.24;53.56;100825.66;7364744;19;20030;-63
2022/04/22 10:56:26;;;;;;;0.00;0.00;;;;;;;15.32;52.52;100824.44;7357171;19;20010;-62
2022/04/22 10:59:10;;;;;;;;;;;;;;;15.40;51.04;100824.13;7258527;19;2004466;-62
2022/04/22 11:01:39;;;;;;;0.00;0.00;;;;;;;15.41;52.60;100817.06;7357379;19;19926;-62
2022/04/22 11:04:18;;;;;;;0.00;0.00;;;;;;;15.48;51.91;100818.56;7338872;19;20022;-61
2022/04/22 11:06:43;;;;;;;0.00;0.00;;;;;;;15.52;53.44;100815.75;7362983;19;20010;-63
2022/04/22 11:09:09;;;;;;;0.00;0.00;;;;;;;15.62;54.34;100789.91;7363468;19;20036;-63
2022/04/22 11:11:41;;;;;;;0.00;0.00;;;;;;;16.02;53.46;100802.25;7358866;19;20006;-63
2022/04/22 11:14:21;;;;;;;0.00;0.00;;;;;;;16.37;52.44;100812.13;7347260;19;20017;-63
2022/04/22 11:16:46;;;;;;;0.00;0.00;;;;;;;16.59;52.31;100810.25;7354484;19;20466;-63
2022/04/22 11:19:24;;;;;;;0.00;0.00;;;;;;;16.88;51.98;100815.97;7358051;19;20006;-62
2022/04/22 11:21:55;;;;;;;0.00;0.00;;;;;;;17.02;50.87;100813.53;7360464;19;20006;-62
2022/04/22 11:24:27;;;;;;;0.00;0.00;;;;;;;17.21;50.67;100803.81;7363385;19;20086;-62
2022/04/22 11:27:06;;;;;;;0.00;0.00;;;;;;;17.38;50.56;100808.25;7347066;19;20398;-63
2022/04/22 11:29:31;;;;;;;0.00;0.00;;;;;;;17.49;50.51;100815.66;7362306;19;20006;-63
2022/04/22 11:31:57;;;;;;;0.00;0.00;;;;;;;17.66;50.29;100802.47;7358789;19;20022;-63
2022/04/22 11:34:46;;;;;;;0.00;0.00;;;;;;;17.88;49.67;100807.53;7361969;19;20010;-63
2022/04/22 11:37:19;;;;;;;0.00;0.00;;;;;;;17.92;49.24;100793.25;7361796;19;20006;-64
2022/04/22 11:39:48;;;;;;;0.00;0.00;;;;;;;18.04;49.15;100810.22;7358959;19;20065;-63
2022/04/22 11:42:15;;;;;;;0.00;0.00;;;;;;;17.96;48.21;100793.94;7352769;19;20085;-63
2022/04/22 11:44:40;;;;;;;0.10;0.10;;;;;;;18.07;48.40;100802.16;7364227;19;20479;-63
2022/04/22 11:47:07;;;;;;;0.00;0.00;;;;;;;18.00;48.29;100785.78;7357526;19;20010;-63
2022/04/22 11:49:32;;;;;;;0.00;0.00;;;;;;;18.03;48.89;100790.03;7358589;19;20010;-63
2022/04/22 11:51:59;;;;;;;0.00;0.00;;;;;;;18.10;48.45;100799.38;7360264;19;20377;-63
2022/04/22 11:54:26;;;;;;;0.10;0.10;;;;;;;18.10;48.13;100802.00;7358354;19;20030;-63
2022/04/22 11:56:54;;;;;;;0.00;0.00;;;;;;;18.12;48.74;100800.13;7363790;19;20033;-63
2022/04/22 11:59:23;;;;;;;0.10;0.10;;;;;;;18.15;48.12;100799.97;7357208;19;20007;-62
2022/04/22 12:10:06;;;;;;;0.00;0.00;;;;;;;18.36;47.68;100798.84;7347251;19;20107;-60
2022/04/22 12:12:31;;;;;;;0.00;0.00;;;;;;;18.35;47.22;100807.72;7352784;19;20878;-62
2022/04/22 12:15:06;;;;;;;0.00;0.00;;;;;;;18.39;46.71;100803.09;7353682;19;20038;-64
2022/04/22 12:17:31;;;;;;;0.00;0.00;;;;;;;18.31;46.97;100800.88;7361645;19;19998;-62
2022/04/22 12:19:57;;;;;;;0.00;0.00;;;;;;;18.32;46.60;100792.00;7352662;19;20038;-64
2022/04/22 12:22:24;;;;;;;0.00;0.00;;;;;;;18.38;47.35;100789.00;7359672;19;20646;-62
2022/04/22 12:25:13;;;;;;;0.00;0.00;;;;;;;18.62;48.08;100783.34;7362134;19;20097;-63